Time;durP1;ratioP1;P1;durP2;ratioP2;P2;SDS_P1;SDS_P2;PMS_P1;PMS_P2;Temp;Humidity;BMP_temperature;BMP_pressure;BME280_temperature;BME280_humidity;BME280_pressure;Samples;Min_cycle;Max_cycle;Signal;HPM_P1;HPM_P2
2021/01/06 00:00:16;;;;;;;79.73;31.93;;;;;;;-0.46;89.37;99631.71;124790;1143;22648;-63
2021/01/06 00:02:43;;;;;;;57.07;27.03;;;;;;;-0.46;89.50;99635.22;124418;1144;22747;-64
2021/01/06 00:05:21;;;;;;;43.87;20.53;;;;;;;-0.45;89.11;99630.70;124643;1142;23259;-63
2021/01/06 00:07:49;;;;;;;45.57;22.97;;;;;;;-0.45;89.21;99628.02;124559;1144;22697;-63
2021/01/06 00:10:21;;;;;;;49.03;25.87;;;;;;;-0.44;88.80;99633.19;124559;1144;22778;-64
2021/01/06 00:12:49;;;;;;;41.10;21.93;;;;;;;-0.44;89.75;99624.33;124657;1143;22710;-64
2021/01/06 00:15:39;;;;;;;43.53;22.60;;;;;;;-0.44;89.72;99625.16;124650;1144;22745;-64
2021/01/06 00:18:06;;;;;;;39.73;22.60;;;;;;;-0.43;89.70;99626.80;124480;1143;22785;-64
2021/01/06 00:20:34;;;;;;;40.37;21.30;;;;;;;-0.44;88.94;99627.84;124680;1143;22653;-63
2021/01/06 00:23:01;;;;;;;135.10;48.30;;;;;;;-0.45;89.11;99626.17;124481;1144;23753;-64
2021/01/06 00:25:33;;;;;;;48.87;24.33;;;;;;;-0.43;89.17;99626.80;124596;1142;22735;-64
2021/01/06 00:28:02;;;;;;;67.97;28.27;;;;;;;-0.42;89.66;99620.43;124575;1143;22687;-64
2021/01/06 00:33:34;;;;;;;39.20;20.10;;;;;;;-0.38;89.20;99619.05;120025;1147;22899;-64
2021/01/06 00:36:09;;;;;;;48.67;24.33;;;;;;;-0.38;89.50;99613.70;124393;1147;23852;-60
2021/01/06 00:38:37;;;;;;;35.83;19.33;;;;;;;-0.39;88.68;99616.56;124198;1147;23129;-60
2021/01/06 00:41:05;;;;;;;37.23;18.43;;;;;;;-0.42;89.36;99616.92;124322;1147;22735;-59
2021/01/06 00:43:32;;;;;;;50.73;24.30;;;;;;;-0.44;88.62;99611.78;124261;1147;22691;-60
2021/01/06 00:46:00;;;;;;;39.63;19.50;;;;;;;-0.42;89.62;99609.72;124341;1147;22664;-60
2021/01/06 00:48:28;;;;;;;222.70;61.70;;;;;;;-0.42;89.49;99611.57;124316;1146;23472;-60
2021/01/06 00:50:58;;;;;;;102.25;35.00;;;;;;;-0.42;88.58;99601.69;124188;1147;22730;-60
2021/01/06 00:53:26;;;;;;;36.67;18.67;;;;;;;-0.40;89.43;99605.02;124227;1146;22704;-60
2021/01/06 00:55:57;;;;;;;36.00;19.97;;;;;;;-0.40;88.73;99599.67;124151;1146;22710;-61
2021/01/06 00:58:25;;;;;;;126.50;41.57;;;;;;;-0.39;89.11;99601.33;124180;1147;23482;-60
2021/01/06 01:00:54;;;;;;;59.70;26.17;;;;;;;-0.37;89.32;99604.66;124064;1147;22729;-60
2021/01/06 01:03:24;;;;;;;53.00;26.97;;;;;;;-0.35;89.24;99593.77;124442;1147;22694;-60
2021/01/06 01:05:54;;;;;;;88.53;36.93;;;;;;;-0.31;88.85;99594.23;122642;1147;23033;-60
2021/01/06 01:08:22;;;;;;;57.23;23.67;;;;;;;-0.28;88.56;99601.87;124438;1145;22768;-60
2021/01/06 01:10:51;;;;;;;102.57;36.73;;;;;;;-0.28;88.81;99594.67;124138;1147;23454;-60
2021/01/06 01:13:20;;;;;;;42.23;22.47;;;;;;;-0.27;89.31;99603.53;124433;1146;23355;-60
2021/01/06 01:15:53;;;;;;;51.50;24.17;;;;;;;-0.27;89.16;99599.00;124320;1146;23312;-60
2021/01/06 01:18:27;;;;;;;68.10;27.80;;;;;;;-0.28;89.07;99589.31;124291;1146;22677;-60
2021/01/06 01:20:58;;;;;;;41.50;19.80;;;;;;;-0.28;88.38;99588.48;124308;1147;22681;-60
2021/01/06 01:23:27;;;;;;;58.90;27.70;;;;;;;-0.28;89.07;99591.16;124361;1147;22647;-60
2021/01/06 01:25:56;;;;;;;42.37;21.20;;;;;;;-0.27;88.59;99590.14;124169;1147;23441;-60
2021/01/06 01:28:24;;;;;;;44.27;22.17;;;;;;;-0.26;89.25;99587.28;124369;1147;22695;-60
2021/01/06 01:30:52;;;;;;;41.33;20.23;;;;;;;-0.25;89.26;99580.08;124125;1146;22699;-60
2021/01/06 01:33:21;;;;;;;48.13;23.53;;;;;;;-0.23;88.69;99583.41;124291;1145;22760;-60
2021/01/06 01:35:48;;;;;;;38.77;20.60;;;;;;;-0.20;88.27;99575.01;124243;1146;23485;-60
2021/01/06 01:38:21;;;;;;;55.27;26.57;;;;;;;-0.23;89.01;99572.70;124288;1146;22683;-60
2021/01/06 01:41:06;;;;;;;74.90;32.20;;;;;;;-0.25;89.00;99583.59;124149;1145;22690;-60
2021/01/06 01:43:34;;;;;;;58.10;27.87;;;;;;;-0.27;88.57;99577.59;124354;1148;22781;-60
2021/01/06 01:46:06;;;;;;;53.23;28.60;;;;;;;-0.28;88.68;99581.28;123956;1147;22743;-60
2021/01/06 01:48:44;;;;;;;51.03;25.37;;;;;;;-0.27;88.61;99574.08;124266;1148;22743;-60
2021/01/06 01:51:11;;;;;;;75.60;34.53;;;;;;;-0.29;88.34;99560.08;124088;1147;23265;-60
2021/01/06 01:53:47;;;;;;;49.20;25.07;;;;;;;-0.30;88.46;99569.13;124336;1147;23421;-60
2021/01/06 01:56:15;;;;;;;45.00;23.60;;;;;;;-0.30;89.28;99558.42;124013;1148;22777;-60
2021/01/06 01:58:42;;;;;;;45.87;22.90;;;;;;;-0.31;88.35;99560.27;124215;1147;22752;-60
2021/01/06 02:01:11;;;;;;;50.97;23.60;;;;;;;-0.27;88.50;99563.38;124348;1147;22688;-60
2021/01/06 02:03:44;;;;;;;45.87;25.43;;;;;;;-0.25;89.35;99553.31;124286;1145;22784;-60
2021/01/06 02:06:17;;;;;;;47.13;24.17;;;;;;;-0.23;88.31;99556.64;122027;1148;23047;-60
2021/01/06 02:08:51;;;;;;;48.63;25.00;;;;;;;-0.24;89.15;99554.97;124130;1147;22814;-60
2021/01/06 02:11:22;;;;;;;47.90;24.10;;;;;;;-0.25;88.42;99559.50;124062;1148;22691;-60
2021/01/06 02:13:57;;;;;;;44.90;24.73;;;;;;;-0.24;88.95;99557.66;123972;1147;23348;-60
2021/01/06 02:16:49;;;;;;;44.70;25.33;;;;;;;-0.25;88.21;99553.31;124285;1146;22726;-60
2021/01/06 02:19:24;;;;;;;47.47;22.93;;;;;;;-0.24;88.86;99568.36;124078;1146;22716;-60
2021/01/06 02:21:51;;;;;;;49.30;24.97;;;;;;;-0.22;88.45;99558.30;124265;1146;22689;-60
2021/01/06 02:24:18;;;;;;;47.03;24.40;;;;;;;-0.21;88.84;99551.92;124162;1146;22715;-60
2021/01/06 02:26:46;;;;;;;44.63;22.60;;;;;;;-0.22;88.36;99553.77;124213;1147;22775;-60
2021/01/06 02:29:13;;;;;;;43.50;24.20;;;;;;;-0.21;88.77;99558.11;124112;1148;22672;-60
2021/01/06 02:31:41;;;;;;;46.30;23.87;;;;;;;-0.21;88.31;99547.41;124377;1147;23428;-60
2021/01/06 02:34:09;;;;;;;44.37;24.00;;;;;;;-0.17;88.71;99550.54;124166;1147;23384;-60
2021/01/06 02:36:36;;;;;;;45.73;24.03;;;;;;;-0.14;89.13;99552.82;124141;1147;22689;-60
2021/01/06 02:39:08;;;;;;;48.27;25.10;;;;;;;-0.14;88.38;99544.78;124028;1147;22801;-55
2021/01/06 02:41:37;;;;;;;48.13;25.57;;;;;;;-0.14;88.74;99553.65;124232;1148;22765;-60
2021/01/06 02:44:05;;;;;;;50.43;24.80;;;;;;;-0.14;88.13;99545.62;124024;1147;22682;-60
2021/01/06 02:46:33;;;;;;;66.13;33.00;;;;;;;-0.17;88.37;99555.90;124274;1147;22699;-60
2021/01/06 02:49:00;;;;;;;47.00;25.60;;;;;;;-0.18;89.00;99543.53;123957;1148;22718;-60
2021/01/06 02:51:36;;;;;;;43.33;23.90;;;;;;;-0.18;88.09;99559.59;124151;1147;22677;-60
2021/01/06 02:54:05;;;;;;;42.00;21.97;;;;;;;-0.19;88.01;99542.70;124129;1147;22719;-61
2021/01/06 02:56:32;;;;;;;45.03;24.30;;;;;;;-0.40;88.52;99514.02;124229;1146;23563;-60
2021/01/06 02:59:01;;;;;;;50.60;25.63;;;;;;;-0.24;88.13;99553.13;124174;1148;22698;-60
2021/01/06 03:01:29;;;;;;;51.65;25.05;;;;;;;-0.23;88.91;99554.79;124288;1147;22702;-60
2021/01/06 03:03:56;;;;;;;65.20;27.80;;;;;;;-0.22;88.52;99553.77;124058;1147;23474;-60
2021/01/06 03:06:33;;;;;;;108.83;44.07;;;;;;;-0.19;88.32;99548.05;124219;1147;22743;-60
2021/01/06 03:09:01;;;;;;;44.27;24.77;;;;;;;-0.19;88.26;99548.05;124045;1149;22721;-60
2021/01/06 03:11:29;;;;;;;52.47;26.87;;;;;;;-0.17;87.96;99551.37;124520;1143;23284;-60
2021/01/06 03:13:56;;;;;;;47.27;23.60;;;;;;;-0.14;88.28;99540.27;124378;1144;23310;-60
2021/01/06 03:16:24;;;;;;;46.10;24.73;;;;;;;-0.15;88.86;99541.31;124376;1142;22805;-60
2021/01/06 03:18:51;;;;;;;47.97;24.50;;;;;;;-0.14;88.46;99540.27;124466;1144;23491;-60
2021/01/06 03:21:19;;;;;;;67.57;31.73;;;;;;;-0.15;87.77;99543.16;124317;1144;22761;-60
2021/01/06 03:23:51;;;;;;;51.57;27.07;;;;;;;-0.14;88.78;99544.78;124498;1144;22672;-60
2021/01/06 03:26:20;;;;;;;48.50;25.93;;;;;;;-0.14;87.87;99539.43;124200;1144;23340;-60
2021/01/06 03:28:47;;;;;;;65.50;28.17;;;;;;;-0.14;88.04;99539.43;124575;1145;22705;-60
2021/01/06 03:31:20;;;;;;;55.83;25.30;;;;;;;-0.13;88.34;99541.92;124367;1144;23518;-60
2021/01/06 03:33:57;;;;;;;55.33;25.73;;;;;;;-0.12;88.96;99550.78;124441;1145;22775;-60
2021/01/06 03:36:26;;;;;;;43.53;25.13;;;;;;;-0.11;88.27;99544.41;124341;1143;22702;-60
2021/01/06 03:39:05;;;;;;;50.37;26.37;;;;;;;-0.12;87.60;99545.44;124380;1144;22689;-60
2021/01/06 03:41:33;;;;;;;65.65;31.00;;;;;;;-0.13;88.75;99535.73;124393;1144;28627;-60
2021/01/06 03:44:06;;;;;;;49.70;27.45;;;;;;;-0.14;88.27;99537.58;124403;1146;22689;-60
2021/01/06 03:46:34;;;;;;;60.37;29.00;;;;;;;-0.13;87.75;99549.13;124493;1142;22690;-60
2021/01/06 03:49:27;;;;;;;55.93;28.63;;;;;;;-0.23;88.05;99524.51;124571;1144;23964;-60
2021/01/06 03:51:56;;;;;;;88.43;40.40;;;;;;;-0.13;88.55;99541.92;124400;1145;22787;-60
2021/01/06 03:54:35;;;;;;;54.97;28.27;;;;;;;-0.14;87.96;99550.97;124525;1144;22782;-60
2021/01/06 03:57:03;;;;;;;55.07;25.83;;;;;;;-0.14;88.55;99544.78;124334;1145;22734;-60
2021/01/06 03:59:32;;;;;;;47.60;26.55;;;;;;;-0.14;88.90;99542.94;124457;1144;23386;-60
2021/01/06 04:02:11;;;;;;;63.83;30.60;;;;;;;-0.14;87.51;99539.43;124319;1144;22713;-60
2021/01/06 04:04:43;;;;;;;50.97;26.77;;;;;;;-0.14;88.52;99545.62;124473;1145;22649;-60
2021/01/06 04:07:18;;;;;;;63.87;29.97;;;;;;;-0.13;87.86;99535.73;124406;1144;22683;-60
2021/01/06 04:09:52;;;;;;;54.67;28.47;;;;;;;-0.11;88.80;99536.38;124466;1144;22707;-60
2021/01/06 04:12:20;;;;;;;67.50;31.73;;;;;;;-0.12;87.48;99540.91;124389;1144;22714;-60
2021/01/06 04:14:47;;;;;;;69.30;34.17;;;;;;;-0.12;88.11;99542.75;124529;1144;22786;-60
2021/01/06 04:17:16;;;;;;;66.47;33.07;;;;;;;-0.12;88.09;99542.75;124530;1142;23515;-60
2021/01/06 04:19:49;;;;;;;66.60;28.93;;;;;;;-0.13;87.73;99544.60;124645;1143;22733;-60
2021/01/06 04:22:22;;;;;;;57.67;28.10;;;;;;;-0.09;87.77;99553.09;124436;1142;23386;-60
2021/01/06 04:24:49;;;;;;;62.00;28.73;;;;;;;-0.07;88.50;99554.57;124592;1144;22711;-60
2021/01/06 04:27:18;;;;;;;49.05;24.90;;;;;;;-0.05;88.42;99557.89;124488;1143;22829;-60
2021/01/06 04:29:45;;;;;;;46.15;24.70;;;;;;;0.00;88.49;99565.38;124481;1144;22677;-60
2021/01/06 04:32:13;;;;;;;50.27;26.27;;;;;;;0.02;87.52;99565.98;124467;1144;23437;-60
2021/01/06 04:34:40;;;;;;;56.43;29.93;;;;;;;0.05;87.66;99568.30;124506;1144;22776;-60
2021/01/06 04:37:08;;;;;;;54.83;29.53;;;;;;;0.06;88.38;99566.45;124515;1142;22758;-60
2021/01/06 04:39:35;;;;;;;49.53;24.40;;;;;;;0.09;87.92;99579.47;124317;1144;22679;-60
2021/01/06 04:42:04;;;;;;;46.75;25.85;;;;;;;0.11;88.18;99570.23;124593;1143;22682;-60
2021/01/06 04:44:46;;;;;;;43.13;23.73;;;;;;;0.13;87.38;99578.91;124339;1144;22721;-60
2021/01/06 04:47:45;;;;;;;52.10;23.40;;;;;;;0.17;88.54;99582.02;124509;1144;22693;-60
2021/01/06 04:50:37;;;;;;;36.83;20.00;;;;;;;0.20;87.45;99578.97;124683;1142;22673;-60
2021/01/06 04:53:49;;;;;;;40.03;20.70;;;;;;;0.20;88.20;99584.32;124559;1144;23740;-60
2021/01/06 04:56:16;;;;;;;37.47;19.97;;;;;;;0.20;87.86;99574.44;124476;1145;22729;-60
2021/01/06 04:59:09;;;;;;;43.33;20.17;;;;;;;0.20;86.87;99579.80;124384;1142;22650;-60
2021/01/06 05:01:52;;;;;;;131.10;55.65;;;;;;;0.18;88.02;99570.28;124493;1144;22686;-60
2021/01/06 05:04:44;;;;;;;53.57;25.70;;;;;;;0.17;87.11;99573.98;124290;1143;22655;-60
2021/01/06 05:07:36;;;;;;;103.17;39.30;;;;;;;0.13;87.44;99580.76;124645;1143;22656;-60
2021/01/06 05:10:27;;;;;;;69.73;32.63;;;;;;;0.12;86.98;99587.96;124243;1144;22677;-60
2021/01/06 05:13:00;;;;;;;57.00;28.60;;;;;;;0.09;87.87;99577.62;124749;1142;22733;-60
2021/01/06 05:15:28;;;;;;;42.67;21.33;;;;;;;0.09;87.17;99593.69;124305;1145;22678;-60
2021/01/06 05:17:55;;;;;;;45.77;23.63;;;;;;;0.10;87.56;99591.84;124564;1143;22714;-60
2021/01/06 05:20:22;;;;;;;43.50;21.85;;;;;;;0.09;88.12;99588.33;124282;1144;22670;-60
2021/01/06 05:22:50;;;;;;;43.20;21.87;;;;;;;0.11;87.74;99591.66;124618;1144;24055;-60
2021/01/06 05:25:18;;;;;;;46.23;22.83;;;;;;;0.11;87.05;99591.66;124504;1142;22749;-60
2021/01/06 05:27:46;;;;;;;45.87;22.90;;;;;;;0.12;88.01;99584.45;124411;1144;22682;-60
2021/01/06 05:30:21;;;;;;;42.53;24.20;;;;;;;0.13;88.13;99591.47;124316;1146;23736;-60
2021/01/06 05:32:49;;;;;;;51.53;25.73;;;;;;;0.14;87.10;99587.78;124488;1144;22812;-60
2021/01/06 05:35:20;;;;;;;47.27;24.53;;;;;;;0.11;88.27;99586.30;124289;1143;22675;-60
2021/01/06 05:37:52;;;;;;;46.97;23.83;;;;;;;0.11;87.63;99593.50;124541;1144;23450;-60
2021/01/06 05:40:20;;;;;;;49.00;23.27;;;;;;;0.10;87.88;99592.67;124500;1142;22663;-60
2021/01/06 05:42:55;;;;;;;57.07;26.33;;;;;;;0.11;87.54;99593.50;124726;1142;22678;-60
2021/01/06 05:45:28;;;;;;;52.80;25.75;;;;;;;0.12;86.81;99597.84;124344;1144;22704;-60
2021/01/06 05:47:58;;;;;;;52.90;24.77;;;;;;;0.11;87.52;99602.38;124467;1144;23887;-60
2021/01/06 05:50:36;;;;;;;54.10;24.63;;;;;;;0.11;87.50;99591.66;124584;1144;22662;-60
2021/01/06 05:53:20;;;;;;;58.05;26.65;;;;;;;0.11;87.27;99590.83;124513;1144;22700;-60
2021/01/06 05:55:48;;;;;;;58.60;27.00;;;;;;;0.09;87.32;99587.50;124396;1144;22754;-60
2021/01/06 05:58:19;;;;;;;57.47;28.80;;;;;;;0.05;88.42;99581.69;124516;1142;23495;-60
2021/01/06 06:01:02;;;;;;;63.37;30.80;;;;;;;0.02;87.93;99579.38;124403;1144;23504;-60
2021/01/06 06:03:48;;;;;;;59.07;27.73;;;;;;;-0.02;87.21;99578.95;124534;1142;22677;-60
2021/01/06 06:06:34;;;;;;;59.80;27.10;;;;;;;-0.06;87.98;99592.89;124539;1142;22705;-60
2021/01/06 06:09:48;;;;;;;65.67;30.40;;;;;;;-0.08;88.06;99597.60;124480;1143;25835;-60
2021/01/06 06:12:55;;;;;;;58.83;27.03;;;;;;;-0.08;87.52;99601.11;124502;1144;23602;-60
2021/01/06 06:16:00;;;;;;;62.17;27.60;;;;;;;-0.05;87.94;99608.78;124394;1144;22696;-60
2021/01/06 06:18:38;;;;;;;55.50;25.97;;;;;;;-0.04;88.97;99597.05;124405;1143;22698;-60
2021/01/06 06:21:27;;;;;;;;;;;;;;;-0.02;88.67;99604.90;124790;1143;22661;-60
2021/01/06 06:24:33;;;;;;;57.83;27.23;;;;;;;-0.02;88.75;99610.26;124500;1144;21968;-60
2021/01/06 06:27:43;;;;;;;62.37;29.67;;;;;;;-0.02;88.00;99612.94;124540;1143;22701;-60
2021/01/06 06:30:10;;;;;;;62.30;27.40;;;;;;;0.01;87.62;99604.50;124558;1142;24020;-60
2021/01/06 06:32:43;;;;;;;63.27;27.80;;;;;;;0.01;88.12;99604.50;124479;1144;22922;-60
2021/01/06 06:35:31;;;;;;;62.97;27.27;;;;;;;0.03;88.62;99601.64;124487;1144;22761;-60
2021/01/06 06:38:01;;;;;;;58.83;28.10;;;;;;;0.05;88.14;99605.80;124445;1144;22745;-59
2021/01/06 06:41:00;;;;;;;58.80;28.80;;;;;;;0.03;88.42;99606.99;124441;1144;22760;-60
2021/01/06 06:43:32;;;;;;;61.67;29.60;;;;;;;-0.02;88.57;99613.77;124309;1143;22674;-59
2021/01/06 06:46:05;;;;;;;57.13;27.07;;;;;;;-0.04;88.04;99623.83;124606;1144;22682;-59
2021/01/06 06:48:35;;;;;;;61.43;27.07;;;;;;;-0.06;88.36;99619.67;124440;1142;22640;-59
2021/01/06 06:51:09;;;;;;;69.23;29.60;;;;;;;-0.08;87.99;99617.18;124731;1144;22679;-60
2021/01/06 06:53:50;;;;;;;61.50;27.63;;;;;;;-0.06;88.33;99625.86;124473;1144;22730;-59
2021/01/06 06:56:36;;;;;;;65.20;28.90;;;;;;;-0.02;89.21;99620.97;124542;1144;23370;-59
2021/01/06 06:59:34;;;;;;;62.73;26.37;;;;;;;0.06;88.39;99623.52;124402;1143;23518;-59
2021/01/06 07:02:02;;;;;;;61.60;28.10;;;;;;;0.09;89.29;99616.97;124510;1144;22698;-59
2021/01/06 07:04:47;;;;;;;70.03;29.77;;;;;;;0.13;88.93;99612.91;124577;1144;22847;-60
2021/01/06 07:07:40;;;;;;;64.33;29.33;;;;;;;0.14;89.14;99615.39;124665;1144;23455;-59
2021/01/06 07:10:26;;;;;;;68.40;29.97;;;;;;;0.16;88.84;99616.01;124372;1142;22705;-60
2021/01/06 07:12:55;;;;;;;64.80;28.67;;;;;;;0.15;89.00;99603.63;124589;1144;23350;-59
2021/01/06 07:15:30;;;;;;;76.00;31.93;;;;;;;0.13;87.95;99616.41;124408;1144;22766;-59
2021/01/06 07:17:57;;;;;;;63.57;27.23;;;;;;;0.14;88.06;99619.92;124490;1144;22666;-59
2021/01/06 07:20:40;;;;;;;66.20;29.00;;;;;;;0.14;88.20;99617.24;124370;1144;22762;-59
2021/01/06 07:23:17;;;;;;;63.13;27.50;;;;;;;0.15;89.07;99617.02;124501;1143;23598;-59
2021/01/06 07:26:02;;;;;;;62.03;27.98;;;;;;;0.17;87.84;99617.67;124613;1143;22686;-59
2021/01/06 07:28:29;;;;;;;63.80;27.35;;;;;;;0.21;88.62;99618.13;124401;1145;22673;-59
2021/01/06 07:31:11;;;;;;;59.35;28.50;;;;;;;0.24;88.60;99612.41;124460;1144;22765;-59
2021/01/06 07:33:44;;;;;;;64.03;28.87;;;;;;;0.26;88.28;99618.41;124468;1144;22703;-60
2021/01/06 07:36:12;;;;;;;52.77;24.40;;;;;;;0.30;89.32;99619.66;124293;1144;22658;-59
2021/01/06 07:38:39;;;;;;;59.40;26.30;;;;;;;0.30;88.69;99623.17;124611;1144;23741;-59
2021/01/06 07:41:07;;;;;;;55.60;27.70;;;;;;;0.29;88.29;99624.19;124480;1144;22675;-58
2021/01/06 07:43:36;;;;;;;63.95;29.70;;;;;;;0.30;89.03;99627.70;124602;1144;22681;-58
2021/01/06 07:46:25;;;;;;;58.17;26.50;;;;;;;0.30;88.13;99623.17;124375;1144;22769;-58
2021/01/06 07:48:59;;;;;;;60.10;25.85;;;;;;;0.30;88.14;99623.17;124532;1142;22682;-58
2021/01/06 07:51:39;;;;;;;66.65;28.30;;;;;;;0.32;88.48;99629.18;124321;1144;23315;-59
2021/01/06 07:54:08;;;;;;;57.63;27.27;;;;;;;0.32;87.96;99634.54;124466;1144;22789;-58
2021/01/06 07:57:02;;;;;;;58.63;26.83;;;;;;;0.33;88.73;99630.02;124289;1145;23607;-58
2021/01/06 07:59:44;;;;;;;56.97;25.93;;;;;;;0.35;87.95;99634.17;124411;1143;22727;-59
2021/01/06 08:02:40;;;;;;;64.50;27.53;;;;;;;0.37;88.13;99633.16;124233;1145;23374;-59
2021/01/06 08:05:25;;;;;;;55.10;24.87;;;;;;;0.39;88.11;99636.48;124370;1146;22720;-56
2021/01/06 08:08:06;;;;;;;56.70;25.10;;;;;;;0.43;88.26;99645.80;124371;1145;22684;-59
2021/01/06 08:10:35;;;;;;;62.77;28.83;;;;;;;0.45;88.94;99643.73;124657;1142;23983;-59
2021/01/06 08:13:31;;;;;;;54.87;27.17;;;;;;;0.45;88.69;99641.06;124340;1144;22717;-59
2021/01/06 08:16:39;;;;;;;61.90;28.20;;;;;;;0.42;88.20;99644.14;124458;1144;22666;-59
2021/01/06 08:19:16;;;;;;;53.03;25.97;;;;;;;0.40;88.66;99646.17;124158;1146;22731;-59
2021/01/06 08:22:09;;;;;;;59.23;28.57;;;;;;;0.39;87.83;99652.55;123987;1147;22827;-59
2021/01/06 08:24:45;;;;;;;54.70;24.80;;;;;;;0.39;88.66;99652.55;124114;1148;22841;-59
2021/01/06 08:27:14;;;;;;;57.40;22.83;;;;;;;0.37;88.63;99644.70;123988;1147;22843;-59
2021/01/06 08:29:42;;;;;;;56.03;24.93;;;;;;;0.41;87.97;99647.84;124172;1147;22726;-59
2021/01/06 08:32:18;;;;;;;48.20;24.17;;;;;;;0.43;88.36;99651.17;123934;1148;22970;-60
2021/01/06 08:34:56;;;;;;;54.17;25.77;;;;;;;0.46;88.80;99659.64;124091;1148;22806;-59
2021/01/06 08:37:29;;;;;;;56.97;26.47;;;;;;;0.50;87.77;99660.09;124002;1148;22744;-59
2021/01/06 08:39:57;;;;;;;53.57;25.90;;;;;;;0.54;89.18;99653.34;124043;1148;22729;-59
2021/01/06 08:42:26;;;;;;;53.67;26.03;;;;;;;0.56;88.04;99646.77;123874;1149;22733;-59
2021/01/06 08:44:57;;;;;;;55.30;25.47;;;;;;;0.58;87.99;99649.23;124098;1148;22699;-59
2021/01/06 08:47:36;;;;;;;61.03;27.60;;;;;;;0.61;88.46;99651.55;124026;1148;23190;-59
2021/01/06 08:50:15;;;;;;;51.37;24.60;;;;;;;0.61;87.77;99651.55;124062;1148;23751;-59
2021/01/06 08:52:58;;;;;;;44.63;23.27;;;;;;;0.61;88.82;99654.22;124010;1148;22822;-59
2021/01/06 08:55:32;;;;;;;47.43;24.33;;;;;;;0.62;87.86;99651.36;124373;1144;23338;-59
2021/01/06 08:58:04;;;;;;;44.67;22.40;;;;;;;0.63;87.81;99655.70;124303;1144;24073;-59
2021/01/06 09:00:36;;;;;;;46.47;22.73;;;;;;;0.64;88.12;99643.13;124424;1145;22675;-59
2021/01/06 09:03:06;;;;;;;45.25;21.85;;;;;;;0.66;88.46;99649.13;124364;1144;22785;-59
2021/01/06 09:05:48;;;;;;;39.95;21.90;;;;;;;0.66;88.75;99651.81;124548;1143;23075;-63
2021/01/06 09:08:25;;;;;;;43.53;20.27;;;;;;;0.66;87.75;99646.45;124226;1145;22697;-63
2021/01/06 09:11:14;;;;;;;43.63;20.72;;;;;;;0.68;88.44;99649.77;124522;1143;22685;-63
2021/01/06 09:13:41;;;;;;;;;;;;;;;0.72;87.74;99643.02;124377;1143;23720;-63
2021/01/06 09:16:17;;;;;;;44.88;19.98;;;;;;;0.74;88.49;99642.80;124457;1143;22339;-63
2021/01/06 09:18:50;;;;;;;44.97;20.73;;;;;;;0.77;87.96;99639.73;124249;1145;22697;-63
2021/01/06 09:21:22;;;;;;;46.45;23.20;;;;;;;0.77;87.58;99642.42;124328;1144;22711;-63
2021/01/06 09:23:57;;;;;;;45.87;21.10;;;;;;;0.78;88.12;99642.23;124233;1144;23876;-63
2021/01/06 09:26:25;;;;;;;44.10;20.70;;;;;;;0.79;88.05;99643.89;124358;1144;22914;-63
2021/01/06 09:28:58;;;;;;;45.73;21.97;;;;;;;0.79;88.29;99645.75;124272;1144;22717;-63
2021/01/06 09:31:27;;;;;;;49.70;23.95;;;;;;;0.81;87.57;99646.39;124392;1143;22890;-63
2021/01/06 09:33:56;;;;;;;46.15;21.30;;;;;;;0.81;87.54;99647.22;124419;1144;22714;-63
2021/01/06 09:36:24;;;;;;;45.53;21.27;;;;;;;0.84;87.07;99638.80;122028;1144;22908;-62
2021/01/06 09:38:52;;;;;;;40.03;21.20;;;;;;;0.87;88.09;99634.87;119770;1145;24813;-62
2021/01/06 09:41:30;;;;;;;48.53;24.53;;;;;;;0.89;88.03;99638.20;119662;1145;24485;-62
2021/01/06 09:44:11;;;;;;;42.67;22.50;;;;;;;0.93;87.42;99645.67;119829;1146;22927;-62
2021/01/06 09:46:59;;;;;;;49.30;25.10;;;;;;;0.93;87.33;99642.99;119713;1146;22955;-62
2021/01/06 09:49:35;;;;;;;43.63;25.67;;;;;;;0.93;87.95;99639.48;124425;1145;22663;-63
2021/01/06 09:52:34;;;;;;;44.90;22.80;;;;;;;0.94;88.30;99636.61;124298;1145;23718;-63
2021/01/06 09:55:01;;;;;;;44.25;22.73;;;;;;;0.94;88.26;99631.24;124360;1145;23355;-63
2021/01/06 09:57:29;;;;;;;39.20;21.25;;;;;;;0.94;87.35;99631.24;124387;1145;22710;-63
2021/01/06 10:00:06;;;;;;;35.10;19.63;;;;;;;0.91;87.00;99634.30;124443;1145;22682;-63
2021/01/06 10:02:34;;;;;;;41.30;21.02;;;;;;;0.90;87.85;99629.13;124461;1144;22839;-63
2021/01/06 10:05:29;;;;;;;33.30;19.43;;;;;;;0.89;87.99;99628.30;124453;1144;22705;-63
2021/01/06 10:07:59;;;;;;;42.67;19.07;;;;;;;0.90;87.80;99631.81;124529;1144;23894;-63
2021/01/06 10:10:29;;;;;;;31.43;17.13;;;;;;;0.93;87.35;99640.31;124352;1144;22652;-63
2021/01/06 10:13:15;;;;;;;32.17;17.63;;;;;;;0.96;87.16;99637.25;124606;1144;22774;-63
2021/01/06 10:15:54;;;;;;;30.50;16.85;;;;;;;1.00;87.55;99635.84;124631;1144;22667;-63
2021/01/06 10:18:28;;;;;;;33.37;18.57;;;;;;;1.05;87.94;99637.92;124447;1144;22834;-63
2021/01/06 10:21:12;;;;;;;40.60;20.20;;;;;;;1.05;86.97;99633.39;124474;1143;23214;-63
2021/01/06 10:23:56;;;;;;;31.95;17.40;;;;;;;1.08;87.11;99632.18;124670;1142;22676;-64
2021/01/06 10:26:33;;;;;;;30.87;16.53;;;;;;;1.12;86.84;99632.63;124559;1142;22783;-63
2021/01/06 10:29:41;;;;;;;33.78;19.00;;;;;;;1.14;87.23;99638.63;124670;1144;23294;-63
2021/01/06 10:32:32;;;;;;;30.60;16.10;;;;;;;1.16;87.24;99644.61;124288;1143;22763;-63
2021/01/06 10:35:10;;;;;;;33.57;20.47;;;;;;;1.17;87.61;99639.05;124774;1144;22718;-63
2021/01/06 10:37:41;;;;;;;;;;;;;;;1.21;87.17;99642.19;124595;1142;22672;-63
2021/01/06 10:40:14;;;;;;;30.35;15.55;;;;;;;1.23;86.94;99646.34;124729;1144;21403;-63
2021/01/06 10:42:42;;;;;;;31.90;16.47;;;;;;;1.25;87.20;99646.14;124499;1144;23527;-63
2021/01/06 10:45:13;;;;;;;43.35;23.95;;;;;;;1.29;86.84;99650.11;124580;1144;22685;-53
2021/01/06 10:47:48;;;;;;;29.17;17.17;;;;;;;1.31;86.33;99646.17;124466;1144;22752;-63
2021/01/06 10:50:30;;;;;;;26.80;15.55;;;;;;;1.34;86.84;99643.11;124585;1144;22749;-63
2021/01/06 10:53:13;;;;;;;34.10;18.80;;;;;;;1.35;87.10;99636.72;124370;1143;22676;-63
2021/01/06 10:56:04;;;;;;;30.90;16.40;;;;;;;1.20;86.30;99616.38;124804;1143;22670;-63
2021/01/06 10:58:51;;;;;;;56.50;32.20;;;;;;;1.37;86.41;99645.41;124360;1144;22670;-63
2021/01/06 11:01:25;;;;;;;33.80;19.13;;;;;;;1.35;85.87;99647.45;124498;1144;22658;-63
2021/01/06 11:04:21;;;;;;;33.83;18.40;;;;;;;1.37;86.83;99658.00;124509;1144;22667;-63
2021/01/06 11:06:57;;;;;;;34.77;19.07;;;;;;;1.36;86.24;99656.34;124586;1144;22740;-63
2021/01/06 11:09:34;;;;;;;50.77;26.57;;;;;;;1.36;86.81;99657.17;124634;1143;22689;-63
2021/01/06 11:12:16;;;;;;;59.77;31.33;;;;;;;1.36;86.59;99656.34;124654;1144;22758;-63
2021/01/06 11:15:21;;;;;;;57.47;29.27;;;;;;;1.37;85.65;99661.52;124539;1144;22777;-63
2021/01/06 11:18:02;;;;;;;45.17;24.10;;;;;;;1.39;86.95;99659.47;124694;1143;23848;-63
2021/01/06 11:20:34;;;;;;;54.90;27.50;;;;;;;1.42;85.90;99658.26;124737;1143;22765;-64
2021/01/06 11:23:20;;;;;;;50.75;27.10;;;;;;;1.43;86.31;99649.18;124826;1143;22884;-64
2021/01/06 11:25:51;;;;;;;69.05;29.45;;;;;;;1.42;85.64;99644.83;124774;1143;22671;-62
2021/01/06 11:29:00;;;;;;;101.17;37.20;;;;;;;1.44;86.26;99639.27;124561;1144;22663;-62
2021/01/06 11:31:28;;;;;;;;;;;;;;;1.45;86.64;99633.67;124684;1143;22719;-62
2021/01/06 11:33:57;;;;;;;;;;;;;;;1.45;86.44;99632.84;124591;1144;21411;-62
2021/01/06 11:36:35;;;;;;;52.57;21.97;;;;;;;1.47;86.05;99636.17;124494;1144;21963;-62
2021/01/06 11:39:06;;;;;;;135.80;49.73;;;;;;;1.48;86.71;99632.46;124454;1144;23593;-62
2021/01/06 11:41:34;;;;;;;55.87;24.53;;;;;;;1.47;85.70;99626.27;124720;1144;23248;-62
2021/01/06 11:44:21;;;;;;;44.30;19.07;;;;;;;1.46;86.25;99631.83;124833;1143;24161;-62
2021/01/06 11:46:51;;;;;;;74.20;43.00;;;;;;;1.45;86.16;99630.99;121543;1146;22946;-61
2021/01/06 11:49:45;;;;;;;56.20;30.75;;;;;;;1.43;85.65;99625.02;120324;1144;22926;-61
2021/01/06 11:52:44;;;;;;;205.90;77.70;;;;;;;1.43;86.40;99626.87;124431;1144;22762;-62
2021/01/06 11:55:31;;;;;;;61.45;31.00;;;;;;;1.42;86.30;99636.78;124472;1143;22781;-64